Time;durP1;ratioP1;P1;durP2;ratioP2;P2;SDS_P1;SDS_P2;PMS_P1;PMS_P2;Temp;Humidity;BMP_temperature;BMP_pressure;BME280_temperature;BME280_humidity;BME280_pressure;Samples;Min_cycle;Max_cycle;Signal;HPM_P1;HPM_P2
2022/11/20 00:00:27;;;;;;;7.70;2.75;;;;;;;17.40;66.92;98778.81;4889037;29;20456;-88
2022/11/20 00:02:53;;;;;;;6.03;2.53;;;;;;;17.40;67.11;98789.72;4887960;29;20475;-89
2022/11/20 00:05:19;;;;;;;6.95;2.80;;;;;;;17.40;66.69;98772.59;4885738;29;20518;-89
2022/11/20 00:07:44;;;;;;;5.65;2.33;;;;;;;17.51;66.68;98803.72;4907672;29;20122;-89
2022/11/20 00:10:10;;;;;;;5.75;2.55;;;;;;;17.46;66.60;98791.13;4867357;29;20502;-89
2022/11/20 00:12:35;;;;;;;6.55;2.38;;;;;;;17.48;66.53;98788.88;4881546;29;20044;-89
2022/11/20 00:15:01;;;;;;;5.13;2.80;;;;;;;17.53;66.68;98793.31;4905517;29;20487;-89
2022/11/20 00:17:26;;;;;;;10.95;2.83;;;;;;;17.52;66.35;98784.34;4895287;29;20039;-89
2022/11/20 00:19:51;;;;;;;8.02;2.78;;;;;;;17.53;66.24;98787.88;4871741;29;20041;-89
2022/11/20 00:22:19;;;;;;;9.23;2.70;;;;;;;17.53;66.25;98790.59;4867554;29;20487;-89
2022/11/20 00:24:45;;;;;;;9.90;2.63;;;;;;;17.50;66.10;98786.59;4882174;29;20040;-88
2022/11/20 00:27:10;;;;;;;4.40;2.30;;;;;;;17.50;66.29;98783.88;4892618;29;20036;-89
2022/11/20 00:29:36;;;;;;;5.53;2.40;;;;;;;17.49;66.23;98776.03;4883753;29;20410;-89
2022/11/20 00:32:01;;;;;;;9.05;2.35;;;;;;;17.55;66.25;98791.84;4888567;29;20020;-89
2022/11/20 00:34:29;;;;;;;6.43;2.67;;;;;;;17.51;66.18;98779.22;4883760;29;20028;-89
2022/11/20 00:36:54;;;;;;;6.70;2.40;;;;;;;17.49;66.09;98778.75;4875738;29;20035;-89
2022/11/20 00:39:20;;;;;;;7.35;2.40;;;;;;;17.42;66.35;98775.78;4896013;29;20402;-89
2022/11/20 00:41:45;;;;;;;5.40;2.13;;;;;;;17.41;66.32;98769.53;4868433;29;20028;-89
2022/11/20 00:44:11;;;;;;;5.90;2.35;;;;;;;17.56;66.04;98777.13;4883918;29;20491;-88
2022/11/20 00:46:36;;;;;;;9.43;2.60;;;;;;;17.44;65.86;98773.53;4890418;29;20041;-89
2022/11/20 00:49:02;;;;;;;6.70;2.72;;;;;;;17.51;66.00;98780.03;4883722;29;20028;-89
2022/11/20 00:51:28;;;;;;;5.40;2.78;;;;;;;17.49;66.17;98767.88;4897253;29;20017;-88
2022/11/20 00:53:57;;;;;;;6.45;2.53;;;;;;;17.53;65.84;98766.88;4892414;29;20056;-89
2022/11/20 00:56:22;;;;;;;9.55;2.65;;;;;;;17.50;65.97;98773.00;4882229;29;20040;-89
2022/11/20 00:58:48;;;;;;;7.10;2.50;;;;;;;17.55;65.89;98770.06;4899505;29;20033;-88
2022/11/20 01:01:19;;;;;;;7.50;2.70;;;;;;;17.55;65.80;98747.50;4897395;29;20068;-89
2022/11/20 01:03:46;;;;;;;9.70;2.63;;;;;;;17.55;65.78;98764.63;4884214;29;20126;-88
2022/11/20 01:06:12;;;;;;;8.00;2.63;;;;;;;17.71;65.77;98769.50;4885226;29;20040;-89
2022/11/20 01:08:38;;;;;;;8.15;2.30;;;;;;;17.56;65.92;98765.44;4895035;29;20069;-89
2022/11/20 01:11:08;;;;;;;13.80;4.20;;;;;;;17.60;66.16;98754.69;4885780;29;20475;-89
2022/11/20 01:13:39;;;;;;;9.45;2.35;;;;;;;17.62;65.85;98752.41;4886788;29;20032;-89
2022/11/20 01:16:21;;;;;;;8.75;2.58;;;;;;;17.64;65.56;98761.06;4896200;29;20032;-89
2022/11/20 01:18:48;;;;;;;4.60;2.28;;;;;;;17.60;65.80;98760.13;4889357;29;20036;-89
2022/11/20 01:21:22;;;;;;;8.73;2.30;;;;;;;17.55;65.98;98759.19;4878404;29;20036;-89
2022/11/20 01:23:47;;;;;;;5.30;2.40;;;;;;;17.54;66.08;98744.00;4883058;29;20036;-89
2022/11/20 01:26:15;;;;;;;7.10;2.20;;;;;;;17.57;65.96;98758.88;4898386;29;20038;-89
2022/11/20 01:28:40;;;;;;;10.68;3.17;;;;;;;17.52;65.74;98742.75;4896235;29;20120;-89
2022/11/20 01:31:26;;;;;;;6.40;2.55;;;;;;;17.69;65.95;98753.50;4882498;29;20127;-89
2022/11/20 01:33:53;;;;;;;7.20;2.58;;;;;;;17.70;65.97;98765.19;4898771;29;20036;-90
2022/11/20 01:36:20;;;;;;;7.57;2.55;;;;;;;17.64;65.67;98737.38;4885686;29;20032;-89
2022/11/20 01:38:45;;;;;;;8.43;2.13;;;;;;;17.66;65.69;98745.19;4873885;29;20479;-89
2022/11/20 01:43:20;;;;;;;7.68;2.20;;;;;;;17.64;65.63;98739.28;4882691;29;20047;-89
2022/11/20 01:43:57;;;;;;;6.38;2.38;;;;;;;17.63;65.80;98729.53;4902873;29;20071;-89
2022/11/20 01:46:22;;;;;;;8.95;2.08;;;;;;;17.56;66.34;98721.91;4884347;29;20048;-89
2022/11/20 01:48:54;;;;;;;8.60;3.15;;;;;;;17.69;65.87;98733.66;4888959;29;20524;-91
2022/11/20 01:51:26;;;;;;;9.20;2.35;;;;;;;17.77;65.76;98739.03;4907665;29;20025;-89
2022/11/20 01:53:53;;;;;;;7.43;2.03;;;;;;;17.75;65.63;98735.84;4903932;29;20507;-89
2022/11/20 01:56:18;;;;;;;7.88;2.35;;;;;;;17.70;65.42;98724.34;4899836;29;20040;-89
2022/11/20 01:58:52;;;;;;;9.27;2.00;;;;;;;17.78;65.17;98735.19;4885429;29;20032;-89
2022/11/20 02:01:17;;;;;;;6.18;2.13;;;;;;;17.73;64.90;98729.94;4882992;29;20473;-89
2022/11/20 02:03:43;;;;;;;9.40;2.20;;;;;;;17.77;65.19;98735.50;4876136;29;20059;-88
2022/11/20 02:06:29;;;;;;;5.75;2.05;;;;;;;17.73;65.42;98743.53;4887674;29;20028;-90
2022/11/20 02:08:54;;;;;;;8.30;2.35;;;;;;;17.69;65.28;98739.88;4887713;29;20092;-89
2022/11/20 02:11:20;;;;;;;9.40;2.53;;;;;;;17.64;65.46;98739.28;4892885;29;20264;-89
2022/11/20 02:13:45;;;;;;;9.63;2.50;;;;;;;17.65;65.58;98730.00;4884271;29;20131;-89
2022/11/20 02:16:16;;;;;;;10.88;2.63;;;;;;;17.72;65.22;98739.25;4883937;29;20524;-89
2022/11/20 02:18:42;;;;;;;7.47;2.17;;;;;;;17.47;65.99;98716.50;4897779;29;20028;-89
2022/11/20 02:21:39;;;;;;;11.70;2.50;;;;;;;17.62;65.55;98736.91;4907076;29;20115;-89
2022/11/20 02:24:14;;;;;;;5.53;2.60;;;;;;;17.63;65.54;98729.53;4909158;29;20040;-89
2022/11/20 02:26:53;;;;;;;7.90;2.80;;;;;;;17.53;66.12;98734.22;4897932;29;20032;-89
2022/11/20 02:29:40;;;;;;;5.40;2.50;;;;;;;17.45;65.85;98720.66;4888389;29;20028;-88
2022/11/20 02:32:05;;;;;;;8.23;2.47;;;;;;;17.44;66.23;98725.31;4886004;29;20463;-89
2022/11/20 02:34:31;;;;;;;9.18;2.28;;;;;;;17.43;65.92;98715.59;4873993;29;20039;-89
2022/11/20 02:36:56;;;;;;;7.32;2.67;;;;;;;17.49;65.93;98719.69;4883690;29;20028;-89
2022/11/20 02:39:22;;;;;;;12.25;2.30;;;;;;;17.45;65.71;98720.66;4891044;29;20028;-88
2022/11/20 02:41:48;;;;;;;5.95;2.22;;;;;;;17.39;66.24;98703.75;4870470;29;20117;-89
2022/11/20 02:44:13;;;;;;;9.98;2.50;;;;;;;17.37;66.13;98698.63;4889901;29;20029;-89
2022/11/20 02:46:39;;;;;;;6.28;2.60;;;;;;;17.40;66.23;98708.06;4884590;29;20035;-89
2022/11/20 02:49:04;;;;;;;3.88;1.88;;;;;;;17.44;65.85;98714.44;4861388;29;20044;-89
2022/11/20 02:51:30;;;;;;;9.25;2.40;;;;;;;17.38;65.90;98699.44;4879678;29;20141;-89
2022/11/20 02:53:56;;;;;;;7.13;2.08;;;;;;;17.39;65.99;98687.44;4868899;29;20115;-89
2022/11/20 02:56:21;;;;;;;6.07;2.22;;;;;;;17.36;66.33;98688.88;4872500;29;20033;-90
2022/11/20 02:58:47;;;;;;;5.68;1.90;;;;;;;17.33;66.14;98675.94;4874505;29;20066;-89
2022/11/20 03:01:12;;;;;;;7.38;2.25;;;;;;;17.35;66.21;98683.78;4882161;29;20051;-89
2022/11/20 03:03:38;;;;;;;5.05;1.90;;;;;;;17.36;66.49;98685.34;4881367;29;20032;-90
2022/11/20 03:06:03;;;;;;;7.88;2.35;;;;;;;17.37;66.19;98697.84;4863747;29;20038;-89
2022/11/20 03:08:29;;;;;;;6.38;1.83;;;;;;;17.31;66.24;98680.13;4880599;29;20028;-90
2022/11/20 03:10:54;;;;;;;6.55;2.67;;;;;;;17.33;66.17;98680.59;4910395;29;20167;-89
2022/11/20 03:13:20;;;;;;;3.70;1.77;;;;;;;17.30;66.10;98679.31;4871060;29;20466;-89
2022/11/20 03:15:45;;;;;;;4.38;1.80;;;;;;;17.25;66.63;98671.34;4882147;29;20578;-87
2022/11/20 03:18:11;;;;;;;3.95;1.77;;;;;;;17.27;66.15;98679.97;4877741;29;20036;-89
2022/11/20 03:20:36;;;;;;;6.70;2.08;;;;;;;17.23;66.42;98656.47;4888167;29;20040;-89
2022/11/20 03:23:01;;;;;;;7.10;1.90;;;;;;;17.34;65.51;98657.69;4880088;29;20068;-89
2022/11/20 03:25:27;;;;;;;4.47;1.60;;;;;;;17.34;65.67;98661.19;4882902;29;20043;-89
2022/11/20 03:27:53;;;;;;;4.97;1.80;;;;;;;17.30;66.19;98656.75;4878402;29;20045;-89
2022/11/20 03:30:19;;;;;;;6.28;1.98;;;;;;;17.48;65.23;98677.28;4870092;29;20030;-89
2022/11/20 03:32:44;;;;;;;5.10;1.90;;;;;;;17.35;65.44;98665.50;4894606;29;20495;-89
2022/11/20 03:35:10;;;;;;;5.85;1.98;;;;;;;17.40;65.50;98691.72;4874271;29;20206;-89
2022/11/20 03:37:35;;;;;;;6.82;2.10;;;;;;;17.38;65.23;98689.34;4883927;29;20075;-89
2022/11/20 03:40:01;;;;;;;6.60;1.80;;;;;;;17.36;65.49;98674.47;4874785;29;20062;-88
2022/11/20 03:42:44;;;;;;;9.35;2.47;;;;;;;17.31;65.93;98666.50;4874108;29;20495;-89
2022/11/20 03:45:10;;;;;;;8.68;2.10;;;;;;;17.41;65.81;98679.72;4887043;29;20107;-89
2022/11/20 03:47:35;;;;;;;8.68;2.25;;;;;;;17.40;65.63;98680.84;4867915;29;20106;-89
2022/11/20 03:50:01;;;;;;;7.07;1.83;;;;;;;17.37;65.28;98670.63;4873997;29;20535;-89
2022/11/20 03:52:26;;;;;;;7.50;1.98;;;;;;;17.49;65.39;98676.16;4877932;29;20028;-89
2022/11/20 03:54:52;;;;;;;4.38;1.85;;;;;;;17.45;65.18;98668.97;4872726;29;20507;-89
2022/11/20 03:57:17;;;;;;;6.18;1.80;;;;;;;17.53;64.98;98679.00;4856950;29;20024;-89
2022/11/20 03:59:43;;;;;;;9.18;1.75;;;;;;;17.48;65.00;98677.28;4881940;29;20115;-89
2022/11/20 04:02:08;;;;;;;5.40;2.13;;;;;;;17.65;64.83;98695.41;4894084;29;20568;-89
2022/11/20 04:04:33;;;;;;;8.88;2.10;;;;;;;17.53;64.88;98677.06;4892320;29;20064;-89
2022/11/20 04:06:59;;;;;;;8.75;2.97;;;;;;;17.49;64.88;98659.81;4898348;29;20036;-89
2022/11/20 04:09:24;;;;;;;8.18;3.45;;;;;;;17.53;64.65;98690.66;4883249;29;20063;-89
2022/11/20 04:11:50;;;;;;;8.15;1.90;;;;;;;17.64;64.49;98698.44;4869370;29;20474;-89
2022/11/20 04:14:15;;;;;;;8.85;2.90;;;;;;;17.61;64.67;98685.50;4896106;29;20507;-89
2022/11/20 04:16:41;;;;;;;5.32;1.88;;;;;;;17.62;64.71;98692.53;4884842;29;20038;-89
2022/11/20 04:19:09;;;;;;;8.50;1.73;;;;;;;17.66;64.67;98698.91;4886235;29;20036;-89
2022/11/20 04:21:35;;;;;;;7.55;1.98;;;;;;;17.60;64.34;98689.34;4901144;29;20032;-89
2022/11/20 04:24:00;;;;;;;4.07;1.73;;;;;;;17.62;64.08;98693.34;4876029;29;20080;-89
2022/11/20 04:26:27;;;;;;;6.15;1.83;;;;;;;17.64;63.68;98687.56;4884299;29;20059;-90
2022/11/20 04:28:53;;;;;;;6.75;1.92;;;;;;;17.73;63.68;98686.34;4881701;29;20032;-89
2022/11/20 04:31:23;;;;;;;5.90;1.50;;;;;;;17.70;63.77;98684.31;4867033;29;20028;-88
2022/11/20 04:33:49;;;;;;;14.55;1.77;;;;;;;17.73;63.26;98685.56;4875082;29;20135;-89
2022/11/20 04:36:15;;;;;;;5.22;1.65;;;;;;;17.86;63.21;98702.78;4883221;29;20028;-88
2022/11/20 04:38:41;;;;;;;5.57;1.90;;;;;;;17.86;63.17;98703.59;4897309;29;20040;-89
2022/11/20 04:41:07;;;;;;;9.55;2.33;;;;;;;17.78;63.25;98679.91;4883117;29;20043;-89
2022/11/20 04:43:33;;;;;;;7.82;1.83;;;;;;;17.78;63.31;98683.44;4880424;29;20032;-89
2022/11/20 04:45:59;;;;;;;5.57;1.70;;;;;;;17.70;63.38;98683.50;4885644;29;20103;-89
2022/11/20 04:48:25;;;;;;;11.43;1.98;;;;;;;17.70;63.55;98694.38;4870009;29;20131;-89
2022/11/20 04:50:50;;;;;;;6.78;2.45;;;;;;;17.73;63.64;98689.09;4895585;29;20083;-87
2022/11/20 04:53:16;;;;;;;6.95;1.55;;;;;;;17.73;63.37;98691.81;4861018;29;20123;-88
2022/11/20 04:56:09;;;;;;;4.05;1.70;;;;;;;17.73;63.64;98694.53;4877316;29;20478;-89
2022/11/20 04:58:35;;;;;;;6.57;2.28;;;;;;;17.68;63.27;98677.59;4866562;29;20044;-89
2022/11/20 05:01:02;;;;;;;7.38;1.98;;;;;;;17.77;62.95;98681.06;4895707;29;20035;-89
2022/11/20 05:03:28;;;;;;;5.05;1.75;;;;;;;17.79;62.76;98684.25;4867118;29;20032;-89
2022/11/20 05:05:53;;;;;;;6.85;2.70;;;;;;;17.92;62.78;98713.16;4884868;29;20492;-89
2022/11/20 05:08:19;;;;;;;7.00;1.90;;;;;;;17.87;62.68;98707.91;4874988;29;20028;-90
2022/11/20 05:10:44;;;;;;;6.93;1.92;;;;;;;17.77;62.69;98700.91;4895099;29;20058;-89
2022/11/20 05:13:10;;;;;;;8.63;2.00;;;;;;;17.86;62.76;98698.13;4872789;29;20028;-89
2022/11/20 05:15:35;;;;;;;5.63;2.20;;;;;;;17.84;62.42;98702.31;4884064;29;20039;-89
2022/11/20 05:18:00;;;;;;;9.18;1.88;;;;;;;17.91;62.44;98708.84;4890853;29;20088;-88
2022/11/20 05:20:26;;;;;;;5.68;1.50;;;;;;;17.74;62.52;98679.81;4888995;29;20062;-88
2022/11/20 05:22:51;;;;;;;3.33;1.75;;;;;;;17.88;62.32;98697.81;4885687;29;20060;-89
2022/11/20 05:25:17;;;;;;;5.65;1.80;;;;;;;17.84;62.17;98696.88;4883763;29;20035;-89
2022/11/20 05:27:42;;;;;;;3.83;1.80;;;;;;;17.78;62.40;98701.69;4880957;29;20040;-88
2022/11/20 05:30:08;;;;;;;5.55;1.80;;;;;;;17.85;62.53;98703.94;4897893;29;20051;-89
2022/11/20 05:32:34;;;;;;;10.43;1.40;;;;;;;17.88;62.42;98722.31;4881788;29;20119;-89
2022/11/20 05:34:59;;;;;;;5.88;1.88;;;;;;;17.84;62.43;98707.78;4900033;29;20065;-89
2022/11/20 05:37:25;;;;;;;6.80;1.83;;;;;;;17.83;62.56;98717.09;4884517;29;20081;-88
2022/11/20 05:39:50;;;;;;;3.33;1.52;;;;;;;17.88;62.35;98708.69;4869061;29;20033;-89
2022/11/20 05:42:31;;;;;;;5.85;1.70;;;;;;;17.94;62.26;98726.44;4883003;29;20029;-88
2022/11/20 05:45:04;;;;;;;4.70;1.50;;;;;;;17.82;62.32;98710.78;4884191;29;20020;-89
2022/11/20 05:47:33;;;;;;;4.40;1.73;;;;;;;17.81;62.24;98711.94;4880310;29;20032;-89
2022/11/20 05:49:59;;;;;;;4.10;1.52;;;;;;;17.88;61.75;98714.94;4878322;29;20051;-88
2022/11/20 05:52:24;;;;;;;5.53;1.70;;;;;;;17.92;61.89;98718.59;4874057;29;20028;-88
2022/11/20 05:54:50;;;;;;;5.95;1.50;;;;;;;17.77;62.64;98711.78;4886207;29;20076;-88
2022/11/20 05:57:15;;;;;;;7.85;1.80;;;;;;;17.80;62.34;98715.78;4883852;29;20028;-89
2022/11/20 05:59:41;;;;;;;5.93;1.98;;;;;;;17.74;62.42;98717.09;4872783;29;20032;-88
2022/11/20 06:02:06;;;;;;;9.13;2.15;;;;;;;17.77;61.94;98730.06;4883788;29;20114;-89
2022/11/20 06:04:32;;;;;;;3.33;1.50;;;;;;;17.78;61.88;98737.91;4883948;29;20051;-88
2022/11/20 06:06:57;;;;;;;6.13;1.95;;;;;;;17.78;61.89;98754.25;4875923;29;20166;-88
2022/11/20 06:09:23;;;;;;;3.65;1.42;;;;;;;17.76;61.82;98752.97;4891737;29;20036;-89
2022/11/20 06:11:48;;;;;;;5.00;1.90;;;;;;;17.71;61.93;98750.44;4878013;29;20024;-89
2022/11/20 06:14:14;;;;;;;5.13;1.48;;;;;;;17.81;61.86;98769.13;4875831;29;20479;-89
2022/11/20 06:16:39;;;;;;;5.93;2.05;;;;;;;17.77;61.97;98751.84;4881442;29;20031;-90
2022/11/20 06:19:05;;;;;;;4.10;2.13;;;;;;;17.73;61.94;98753.66;4889335;29;20096;-88
2022/11/20 06:21:30;;;;;;;6.78;2.20;;;;;;;17.73;61.72;98754.44;4872357;29;20032;-89
2022/11/20 06:23:55;;;;;;;7.03;2.70;;;;;;;17.69;62.09;98750.00;4879877;29;20056;-88
2022/11/20 06:26:23;;;;;;;7.40;2.60;;;;;;;17.68;61.85;98756.53;4890581;29;20032;-88
2022/11/20 06:28:48;;;;;;;6.63;2.58;;;;;;;17.72;62.54;98773.81;4893022;29;20027;-89
2022/11/20 06:31:15;;;;;;;11.55;3.90;;;;;;;17.68;62.49;98773.69;4876304;29;20057;-89
2022/11/20 06:33:41;;;;;;;10.27;3.42;;;;;;;17.61;62.74;98765.25;4888822;29;20523;-88
2022/11/20 06:36:07;;;;;;;8.77;4.55;;;;;;;17.60;62.53;98773.72;4891121;29;20093;-88
2022/11/20 06:38:32;;;;;;;9.40;4.90;;;;;;;17.63;61.78;98782.03;4869403;29;20028;-89
2022/11/20 06:40:57;;;;;;;7.35;4.95;;;;;;;17.65;60.83;98798.06;4883377;29;20495;-89
2022/11/20 06:43:23;;;;;;;7.53;4.30;;;;;;;17.30;58.61;98777.25;4883439;29;20514;-88
2022/11/20 06:45:55;;;;;;;9.45;4.10;;;;;;;17.15;58.77;98794.16;4897169;29;20040;-89
2022/11/20 06:48:21;;;;;;;6.82;3.33;;;;;;;16.93;59.43;98806.03;4885821;29;20047;-88
2022/11/20 06:50:47;;;;;;;7.30;3.40;;;;;;;16.62;59.46;98817.94;4882613;29;20044;-90
2022/11/20 06:53:12;;;;;;;6.63;3.70;;;;;;;16.24;58.60;98820.50;4883597;29;20040;-89
2022/11/20 06:55:42;;;;;;;8.98;4.65;;;;;;;15.54;59.52;98817.66;4894629;29;20044;-88
2022/11/20 06:58:07;;;;;;;6.30;4.60;;;;;;;14.91;61.47;98838.59;4859385;29;20061;-89
2022/11/20 07:00:33;;;;;;;7.68;5.30;;;;;;;14.30;63.17;98849.78;4879291;29;20031;-89
2022/11/20 07:02:58;;;;;;;7.85;6.00;;;;;;;13.89;64.53;98861.50;4881293;29;20037;-89
2022/11/20 07:05:23;;;;;;;10.00;6.50;;;;;;;13.66;65.25;98878.75;4881751;29;20498;-87
2022/11/20 07:07:49;;;;;;;11.32;7.43;;;;;;;13.35;66.84;98895.56;4864170;29;20025;-88
2022/11/20 07:10:14;;;;;;;12.25;7.07;;;;;;;13.24;67.31;98907.63;4864153;29;20029;-89
2022/11/20 07:12:40;;;;;;;12.65;7.72;;;;;;;12.99;67.87;98920.50;4881474;29;20087;-88
2022/11/20 07:15:06;;;;;;;13.52;9.02;;;;;;;13.01;68.99;98941.78;4869605;29;20039;-88
2022/11/20 07:17:32;;;;;;;14.73;8.70;;;;;;;12.80;69.40;98954.81;4876405;29;20119;-89
2022/11/20 07:19:57;;;;;;;13.82;9.38;;;;;;;12.78;69.37;98957.81;4885217;29;20032;-89
2022/11/20 07:22:22;;;;;;;14.05;9.23;;;;;;;12.73;69.57;98949.78;4873985;29;20063;-89
2022/11/20 07:24:48;;;;;;;19.92;10.30;;;;;;;12.37;71.04;98944.91;4868291;29;20416;-88
2022/11/20 07:27:14;;;;;;;16.98;10.13;;;;;;;12.39;70.75;98941.91;4879776;29;20032;-89
2022/11/20 07:29:39;;;;;;;16.58;10.38;;;;;;;12.29;71.09;98962.56;4888033;29;20124;-89
2022/11/20 07:32:05;;;;;;;16.58;10.23;;;;;;;12.16;71.83;98959.75;4876682;29;20028;-88
2022/11/20 07:34:30;;;;;;;17.30;10.35;;;;;;;12.01;71.77;98964.22;4874841;29;20033;-89
2022/11/20 07:36:55;;;;;;;18.02;10.77;;;;;;;11.81;73.17;98956.38;4866457;29;20032;-89
2022/11/20 07:39:21;;;;;;;21.67;11.65;;;;;;;11.47;74.46;98947.25;4902003;29;20040;-88
2022/11/20 07:41:46;;;;;;;17.75;10.40;;;;;;;11.54;74.25;98963.09;4888788;29;20041;-88
2022/11/20 07:44:12;;;;;;;20.42;10.85;;;;;;;11.48;74.40;98975.81;4886455;29;20032;-89
2022/11/20 07:46:37;;;;;;;17.60;10.10;;;;;;;11.50;74.71;98989.81;4883316;29;20124;-89
2022/11/20 07:49:03;;;;;;;19.77;10.45;;;;;;;11.48;74.79;98969.63;4876763;29;20043;-90
2022/11/20 07:51:29;;;;;;;19.70;10.70;;;;;;;11.61;74.45;98974.34;4887607;29;20017;-89
2022/11/20 07:53:54;;;;;;;21.10;11.25;;;;;;;11.29;75.25;98962.25;4884967;29;20048;-89
2022/11/20 07:56:20;;;;;;;22.25;10.80;;;;;;;11.28;75.42;98946.34;4888918;29;20418;-89
2022/11/20 07:58:45;;;;;;;18.75;10.95;;;;;;;11.27;75.32;98958.25;4890195;29;20024;-89
2022/11/20 08:01:11;;;;;;;18.42;9.80;;;;;;;11.26;74.94;98957.41;4890262;29;20040;-89
2022/11/20 08:03:39;;;;;;;19.35;9.50;;;;;;;11.28;74.72;98963.31;4878215;29;20119;-89
2022/11/20 08:06:05;;;;;;;20.50;9.93;;;;;;;11.26;74.86;98972.78;4879908;29;20582;-91
2022/11/20 08:08:30;;;;;;;17.77;9.23;;;;;;;11.26;75.03;98983.56;4865981;29;20037;-89
2022/11/20 08:16:31;;;;;;;19.17;9.70;;;;;;;11.13;76.33;98985.81;4896818;29;20052;-90
2022/11/20 08:18:57;;;;;;;20.50;10.40;;;;;;;11.19;76.14;98996.56;4881633;29;20033;-91
2022/11/20 08:21:22;;;;;;;24.45;11.20;;;;;;;11.10;76.23;98980.19;4895119;29;20487;-90
2022/11/20 08:23:49;;;;;;;20.30;10.98;;;;;;;11.19;75.31;98983.91;4892438;29;20028;-90
2022/11/20 08:26:14;;;;;;;20.80;11.38;;;;;;;11.46;75.24;99006.84;4887063;29;20039;-90
2022/11/20 08:28:40;;;;;;;21.73;11.25;;;;;;;11.31;75.85;98989.72;4890429;29;20039;-90
2022/11/20 08:31:05;;;;;;;21.35;11.45;;;;;;;11.24;75.60;98997.31;4877520;29;20057;-90
2022/11/20 08:33:32;;;;;;;24.63;12.23;;;;;;;11.23;75.83;98989.53;4883403;29;20032;-92
2022/11/20 08:36:01;;;;;;;26.35;12.77;;;;;;;11.07;75.91;98996.94;4881110;29;20033;-93
2022/11/20 08:38:27;;;;;;;20.95;11.13;;;;;;;11.02;75.77;99011.25;4880709;29;20032;-90
2022/11/20 08:43:40;;;;;;;20.35;10.95;;;;;;;11.20;75.42;99003.56;4892792;29;20043;-89
2022/11/20 08:46:06;;;;;;;22.63;11.07;;;;;;;11.22;74.62;98991.41;4891554;29;20037;-89
2022/11/20 08:48:31;;;;;;;22.58;10.70;;;;;;;11.06;75.10;98985.34;4891892;29;20032;-88
2022/11/20 08:51:00;;;;;;;19.10;10.80;;;;;;;10.95;75.85;98989.19;4898917;29;20032;-89
2022/11/20 08:53:26;;;;;;;24.02;11.20;;;;;;;10.83;76.66;98994.94;4892889;29;20043;-89
2022/11/20 08:55:51;;;;;;;16.85;10.75;;;;;;;10.85;76.50;98992.78;4894498;29;20036;-88
2022/11/20 08:58:17;;;;;;;19.35;11.38;;;;;;;10.83;76.57;98988.72;4884485;29;20495;-89
2022/11/20 09:00:43;;;;;;;20.00;11.50;;;;;;;10.94;75.52;98976.81;4889433;29;20384;-90
2022/11/20 09:03:08;;;;;;;21.73;11.52;;;;;;;10.81;76.22;98969.34;4886000;29;20029;-90
2022/11/20 09:05:33;;;;;;;21.60;11.85;;;;;;;10.73;76.72;98976.16;4907111;29;20039;-89
2022/11/20 09:07:59;;;;;;;23.13;12.20;;;;;;;10.81;76.79;98997.09;4898154;29;20039;-89
2022/11/20 09:10:28;;;;;;;23.23;10.75;;;;;;;10.92;76.49;98978.97;4893950;29;20487;-90
2022/11/20 09:12:54;;;;;;;18.85;11.10;;;;;;;11.07;76.00;98962.69;4900233;29;20115;-90
2022/11/20 09:15:20;;;;;;;17.42;10.80;;;;;;;11.15;75.49;98952.41;4896278;29;20036;-89
2022/11/20 09:17:53;;;;;;;18.02;10.10;;;;;;;11.08;75.00;98940.06;4891024;29;20039;-88
2022/11/20 09:20:21;;;;;;;18.63;10.25;;;;;;;11.15;75.00;98957.81;4882152;29;20052;-92
2022/11/20 09:22:46;;;;;;;20.20;10.82;;;;;;;11.09;75.24;98948.94;4878205;29;20131;-92
2022/11/20 09:25:12;;;;;;;19.95;10.85;;;;;;;11.21;74.50;98952.09;4892494;29;20124;-90
2022/11/20 09:27:43;;;;;;;20.05;11.13;;;;;;;11.15;75.01;98942.44;4892590;29;20036;-90
2022/11/20 09:30:09;;;;;;;20.50;11.38;;;;;;;11.16;75.59;98951.31;4888068;29;20032;-89
2022/11/20 09:32:35;;;;;;;17.30;11.32;;;;;;;11.13;76.00;98942.72;4893641;29;20056;-89
2022/11/20 09:35:01;;;;;;;22.33;12.18;;;;;;;11.07;76.18;98934.97;4897622;29;20028;-90
2022/11/20 09:37:26;;;;;;;25.80;11.95;;;;;;;11.15;75.58;98944.34;4894324;29;20067;-90
2022/11/20 09:39:52;;;;;;;21.05;12.25;;;;;;;11.21;75.53;98922.44;4890518;29;20032;-90
2022/11/20 09:42:35;;;;;;;23.33;10.77;;;;;;;11.31;75.15;98926.94;4896855;29;20028;-89
2022/11/20 09:45:13;;;;;;;21.45;10.90;;;;;;;11.50;74.55;98941.28;4910286;29;20040;-93
2022/11/20 09:47:46;;;;;;;19.60;11.18;;;;;;;11.46;75.02;98950.25;4907994;29;20186;-94
2022/11/20 09:50:50;;;;;;;19.65;10.98;;;;;;;11.65;74.45;98934.94;4897440;29;20040;-93
2022/11/20 09:53:34;;;;;;;18.98;11.07;;;;;;;11.66;73.99;98928.47;4907436;29;20040;-93
2022/11/20 09:56:01;;;;;;;17.95;11.13;;;;;;;11.62;73.53;98913.13;4916566;29;20067;-94
2022/11/20 09:58:57;;;;;;;19.83;12.25;;;;;;;11.73;73.30;98926.22;4885068;29;20032;-92
2022/11/20 10:01:29;;;;;;;25.85;13.32;;;;;;;11.72;73.43;98913.84;4882762;29;20040;-92
2022/11/20 10:04:06;;;;;;;21.85;12.23;;;;;;;11.82;73.19;98917.50;4888674;29;20405;-94
2022/11/20 10:06:33;;;;;;;18.98;10.75;;;;;;;11.82;72.59;98898.63;4911543;29;20040;-95
2022/11/20 10:09:05;;;;;;;17.73;10.95;;;;;;;11.87;72.64;98915.53;4894520;29;20051;-95
2022/11/20 10:11:33;;;;;;;16.55;9.55;;;;;;;11.80;72.00;98890.81;4911337;29;20028;-95
2022/11/20 10:14:24;;;;;;;19.70;10.55;;;;;;;12.06;71.92;98920.22;4885042;29;20064;-93
2022/11/20 10:17:18;;;;;;;22.45;11.52;;;;;;;12.00;72.27;98910.56;4899686;29;20068;-95
2022/11/20 10:20:16;;;;;;;19.10;10.38;;;;;;;11.91;72.52;98905.00;4899135;29;20029;-94
2022/11/20 10:23:04;;;;;;;17.80;10.68;;;;;;;11.68;72.55;98880.44;4909510;29;20028;-96
2022/11/20 10:25:38;;;;;;;17.02;9.98;;;;;;;11.59;73.56;98900.22;4889457;29;20444;-94
2022/11/20 10:28:20;;;;;;;19.42;10.85;;;;;;;11.61;74.17;98908.84;4879796;29;20056;-92
2022/11/20 10:30:46;;;;;;;19.70;11.02;;;;;;;11.46;74.53;98891.72;4909829;29;20073;-95
2022/11/20 10:33:22;;;;;;;18.50;11.48;;;;;;;11.51;74.40;98870.09;4879717;29;20041;-93
2022/11/20 10:36:22;;;;;;;18.02;10.27;;;;;;;11.86;73.34;98908.53;4890560;29;20066;-95
2022/11/20 10:38:53;;;;;;;17.60;10.30;;;;;;;11.93;72.94;98879.34;4908395;29;20092;-96
2022/11/20 10:41:26;;;;;;;20.33;11.13;;;;;;;11.93;72.72;98879.34;4899715;29;20040;-94
2022/11/20 10:44:05;;;;;;;18.88;10.07;;;;;;;12.23;72.24;98896.22;4900917;29;20032;-94
2022/11/20 10:46:51;;;;;;;19.40;11.98;;;;;;;12.12;72.09;98882.06;4910264;29;20107;-94
2022/11/20 10:49:18;;;;;;;19.52;11.02;;;;;;;12.11;72.31;98863.47;4897465;29;20055;-93
2022/11/20 10:52:02;;;;;;;22.90;12.05;;;;;;;12.39;71.80;98882.50;4886022;29;20028;-95
2022/11/20 10:54:51;;;;;;;22.42;11.18;;;;;;;12.38;71.60;98857.41;4900627;29;20060;-93
2022/11/20 10:57:36;;;;;;;18.77;10.50;;;;;;;12.56;71.34;98877.41;4885567;29;20028;-94
2022/11/20 11:00:03;;;;;;;20.13;10.57;;;;;;;12.51;71.06;98848.59;4916379;29;20448;-94
2022/11/20 11:02:43;;;;;;;16.52;9.82;;;;;;;12.68;70.10;98852.66;4900103;29;20499;-93
2022/11/20 11:05:18;;;;;;;16.20;9.48;;;;;;;12.73;69.63;98853.34;4862509;29;20120;-93
2022/11/20 11:07:43;;;;;;;18.60;10.32;;;;;;;12.83;69.71;98862.41;4882386;29;20115;-93
2022/11/20 11:10:35;;;;;;;20.50;10.63;;;;;;;12.83;69.80;98852.38;4893587;29;20028;-92
2022/11/20 11:13:00;;;;;;;18.17;9.70;;;;;;;12.92;69.14;98853.28;4898698;29;20036;-95
2022/11/20 11:15:30;;;;;;;15.10;9.10;;;;;;;12.92;69.10;98857.91;4861140;29;20504;-92
2022/11/20 11:17:55;;;;;;;15.50;9.80;;;;;;;12.47;69.88;98835.94;4893693;29;20028;-94
2022/11/20 11:20:25;;;;;;;17.83;10.30;;;;;;;12.49;69.94;98836.44;4879575;29;20040;-93
2022/11/20 11:22:55;;;;;;;18.08;10.25;;;;;;;12.64;69.65;98833.50;4877273;29;20024;-93
2022/11/20 11:25:25;;;;;;;16.75;10.30;;;;;;;12.90;69.53;98871.69;4884617;29;20412;-92
2022/11/20 11:27:55;;;;;;;19.05;10.38;;;;;;;12.73;69.50;98842.53;4890041;29;20440;-93
2022/11/20 11:30:24;;;;;;;19.58;10.63;;;;;;;12.81;69.73;98851.06;4893061;29;20546;-93
2022/11/20 11:32:50;;;;;;;18.25;10.32;;;;;;;12.76;69.96;98845.75;4887688;29;20084;-95
2022/11/20 11:35:26;;;;;;;16.55;10.30;;;;;;;12.95;69.40;98851.91;4887156;29;20024;-93
2022/11/20 11:38:09;;;;;;;18.15;9.40;;;;;;;12.87;69.02;98831.78;4875657;29;20096;-94
2022/11/20 11:40:38;;;;;;;15.38;9.40;;;;;;;12.64;69.77;98814.63;4859763;29;20032;-93